sensor_id;sensor_type;location;lat;lon;timestamp;P1;durP1;ratioP1;P2;durP2;ratioP2
21741;SDS011;11033;47.490;11.116;2022-10-16T00:00:15;3.67;;;3.17;;
21741;SDS011;11033;47.490;11.116;2022-10-16T00:02:40;5.80;;;3.63;;
21741;SDS011;11033;47.490;11.116;2022-10-16T00:05:05;5.27;;;3.30;;
21741;SDS011;11033;47.490;11.116;2022-10-16T00:07:31;5.18;;;3.88;;
21741;SDS011;11033;47.490;11.116;2022-10-16T00:09:56;6.33;;;3.90;;
21741;SDS011;11033;47.490;11.116;2022-10-16T00:12:21;6.30;;;3.50;;
21741;SDS011;11033;47.490;11.116;2022-10-16T00:14:46;8.50;;;3.97;;
21741;SDS011;11033;47.490;11.116;2022-10-16T00:17:12;7.77;;;3.40;;
21741;SDS011;11033;47.490;11.116;2022-10-16T00:19:37;5.65;;;4.47;;
21741;SDS011;11033;47.490;11.116;2022-10-16T00:22:02;5.47;;;3.85;;
21741;SDS011;11033;47.490;11.116;2022-10-16T00:24:27;3.67;;;2.77;;
21741;SDS011;11033;47.490;11.116;2022-10-16T00:26:53;3.65;;;3.35;;
21741;SDS011;11033;47.490;11.116;2022-10-16T00:29:18;7.28;;;3.38;;
21741;SDS011;11033;47.490;11.116;2022-10-16T00:31:43;9.47;;;3.30;;
21741;SDS011;11033;47.490;11.116;2022-10-16T00:34:09;6.75;;;3.83;;
21741;SDS011;11033;47.490;11.116;2022-10-16T00:36:34;4.28;;;3.72;;
21741;SDS011;11033;47.490;11.116;2022-10-16T00:38:59;7.38;;;3.58;;
21741;SDS011;11033;47.490;11.116;2022-10-16T00:41:25;4.85;;;3.40;;
21741;SDS011;11033;47.490;11.116;2022-10-16T00:43:55;4.10;;;3.70;;
21741;SDS011;11033;47.490;11.116;2022-10-16T00:49:04;13.73;;;4.07;;
21741;SDS011;11033;47.490;11.116;2022-10-16T00:51:37;5.22;;;2.90;;
21741;SDS011;11033;47.490;11.116;2022-10-16T00:54:06;5.15;;;3.92;;
21741;SDS011;11033;47.490;11.116;2022-10-16T00:56:34;10.70;;;3.85;;
21741;SDS011;11033;47.490;11.116;2022-10-16T00:59:01;8.80;;;3.53;;
21741;SDS011;11033;47.490;11.116;2022-10-16T01:01:31;4.70;;;3.20;;
21741;SDS011;11033;47.490;11.116;2022-10-16T01:03:56;11.82;;;4.10;;
21741;SDS011;11033;47.490;11.116;2022-10-16T01:06:24;5.60;;;3.72;;
21741;SDS011;11033;47.490;11.116;2022-10-16T01:09:06;6.85;;;3.65;;
21741;SDS011;11033;47.490;11.116;2022-10-16T01:11:42;6.13;;;3.50;;
21741;SDS011;11033;47.490;11.116;2022-10-16T01:14:19;6.10;;;3.97;;
21741;SDS011;11033;47.490;11.116;2022-10-16T01:16:51;5.78;;;3.47;;
21741;SDS011;11033;47.490;11.116;2022-10-16T01:19:31;6.28;;;3.75;;
21741;SDS011;11033;47.490;11.116;2022-10-16T01:22:13;5.32;;;3.13;;
21741;SDS011;11033;47.490;11.116;2022-10-16T01:24:39;6.55;;;3.85;;
21741;SDS011;11033;47.490;11.116;2022-10-16T01:27:15;5.93;;;3.73;;
21741;SDS011;11033;47.490;11.116;2022-10-16T01:29:48;4.18;;;3.60;;
21741;SDS011;11033;47.490;11.116;2022-10-16T01:32:36;5.25;;;3.65;;
21741;SDS011;11033;47.490;11.116;2022-10-16T01:37:44;4.30;;;3.90;;
21741;SDS011;11033;47.490;11.116;2022-10-16T01:40:14;4.57;;;4.05;;
21741;SDS011;11033;47.490;11.116;2022-10-16T01:42:46;4.77;;;4.10;;
21741;SDS011;11033;47.490;11.116;2022-10-16T01:45:15;7.63;;;3.88;;
21741;SDS011;11033;47.490;11.116;2022-10-16T01:47:44;4.75;;;3.80;;
21741;SDS011;11033;47.490;11.116;2022-10-16T01:50:11;5.50;;;4.05;;
21741;SDS011;11033;47.490;11.116;2022-10-16T01:52:40;4.80;;;3.40;;
21741;SDS011;11033;47.490;11.116;2022-10-16T01:55:09;3.90;;;3.30;;
21741;SDS011;11033;47.490;11.116;2022-10-16T01:57:38;6.82;;;3.75;;
21741;SDS011;11033;47.490;11.116;2022-10-16T02:00:10;9.43;;;4.43;;
21741;SDS011;11033;47.490;11.116;2022-10-16T02:02:39;4.43;;;3.35;;
21741;SDS011;11033;47.490;11.116;2022-10-16T02:05:19;6.43;;;3.92;;
21741;SDS011;11033;47.490;11.116;2022-10-16T02:07:55;7.10;;;4.22;;
21741;SDS011;11033;47.490;11.116;2022-10-16T02:10:21;4.78;;;3.92;;
21741;SDS011;11033;47.490;11.116;2022-10-16T02:12:50;4.25;;;3.78;;
21741;SDS011;11033;47.490;11.116;2022-10-16T02:15:40;8.57;;;4.10;;
21741;SDS011;11033;47.490;11.116;2022-10-16T02:18:06;5.55;;;4.15;;
21741;SDS011;11033;47.490;11.116;2022-10-16T02:20:34;5.38;;;3.95;;
21741;SDS011;11033;47.490;11.116;2022-10-16T02:23:35;5.80;;;3.80;;
21741;SDS011;11033;47.490;11.116;2022-10-16T02:26:15;5.93;;;4.10;;
21741;SDS011;11033;47.490;11.116;2022-10-16T02:28:54;5.47;;;4.10;;
21741;SDS011;11033;47.490;11.116;2022-10-16T02:31:25;6.88;;;4.40;;
21741;SDS011;11033;47.490;11.116;2022-10-16T02:33:54;5.68;;;3.75;;
21741;SDS011;11033;47.490;11.116;2022-10-16T02:36:22;6.20;;;4.25;;
21741;SDS011;11033;47.490;11.116;2022-10-16T02:38:48;4.55;;;4.15;;
21741;SDS011;11033;47.490;11.116;2022-10-16T02:41:14;5.88;;;4.22;;
21741;SDS011;11033;47.490;11.116;2022-10-16T02:43:39;4.35;;;3.80;;
21741;SDS011;11033;47.490;11.116;2022-10-16T02:46:05;5.32;;;4.30;;
21741;SDS011;11033;47.490;11.116;2022-10-16T02:48:31;4.95;;;4.22;;
21741;SDS011;11033;47.490;11.116;2022-10-16T02:50:56;5.97;;;4.13;;
21741;SDS011;11033;47.490;11.116;2022-10-16T02:53:22;7.05;;;4.28;;
21741;SDS011;11033;47.490;11.116;2022-10-16T02:55:47;4.22;;;3.83;;
21741;SDS011;11033;47.490;11.116;2022-10-16T02:58:12;5.43;;;4.10;;
21741;SDS011;11033;47.490;11.116;2022-10-16T03:00:38;6.13;;;4.35;;
21741;SDS011;11033;47.490;11.116;2022-10-16T03:03:03;6.10;;;4.40;;
21741;SDS011;11033;47.490;11.116;2022-10-16T03:05:28;8.30;;;4.60;;
21741;SDS011;11033;47.490;11.116;2022-10-16T03:07:54;6.88;;;4.57;;
21741;SDS011;11033;47.490;11.116;2022-10-16T03:10:19;5.40;;;4.47;;
21741;SDS011;11033;47.490;11.116;2022-10-16T03:12:44;5.63;;;4.43;;
21741;SDS011;11033;47.490;11.116;2022-10-16T03:15:10;4.40;;;4.00;;
21741;SDS011;11033;47.490;11.116;2022-10-16T03:17:35;6.00;;;4.57;;
21741;SDS011;11033;47.490;11.116;2022-10-16T03:20:01;6.93;;;4.53;;
21741;SDS011;11033;47.490;11.116;2022-10-16T03:22:27;7.55;;;4.63;;
21741;SDS011;11033;47.490;11.116;2022-10-16T03:24:52;5.73;;;4.40;;
21741;SDS011;11033;47.490;11.116;2022-10-16T03:27:18;7.03;;;4.97;;
21741;SDS011;11033;47.490;11.116;2022-10-16T03:29:43;7.95;;;4.25;;
21741;SDS011;11033;47.490;11.116;2022-10-16T03:32:08;5.70;;;3.97;;
21741;SDS011;11033;47.490;11.116;2022-10-16T03:34:34;5.93;;;4.35;;
21741;SDS011;11033;47.490;11.116;2022-10-16T03:36:59;7.77;;;4.67;;
21741;SDS011;11033;47.490;11.116;2022-10-16T03:39:24;4.80;;;4.30;;
21741;SDS011;11033;47.490;11.116;2022-10-16T03:41:50;5.88;;;4.75;;
21741;SDS011;11033;47.490;11.116;2022-10-16T03:44:15;5.43;;;4.18;;
21741;SDS011;11033;47.490;11.116;2022-10-16T03:46:40;4.63;;;4.13;;
21741;SDS011;11033;47.490;11.116;2022-10-16T03:49:06;7.10;;;4.15;;
21741;SDS011;11033;47.490;11.116;2022-10-16T03:51:31;5.93;;;4.50;;
21741;SDS011;11033;47.490;11.116;2022-10-16T03:53:56;6.75;;;4.80;;
21741;SDS011;11033;47.490;11.116;2022-10-16T03:56:22;6.88;;;4.60;;
21741;SDS011;11033;47.490;11.116;2022-10-16T03:58:47;7.07;;;4.50;;
21741;SDS011;11033;47.490;11.116;2022-10-16T04:01:12;7.07;;;4.75;;
21741;SDS011;11033;47.490;11.116;2022-10-16T04:03:38;4.90;;;4.35;;
21741;SDS011;11033;47.490;11.116;2022-10-16T04:06:03;7.30;;;4.67;;
21741;SDS011;11033;47.490;11.116;2022-10-16T04:08:28;4.75;;;4.30;;
21741;SDS011;11033;47.490;11.116;2022-10-16T04:10:54;5.82;;;4.45;;
21741;SDS011;11033;47.490;11.116;2022-10-16T04:13:19;8.48;;;4.90;;
21741;SDS011;11033;47.490;11.116;2022-10-16T04:15:44;5.55;;;4.75;;
21741;SDS011;11033;47.490;11.116;2022-10-16T04:18:10;13.40;;;4.85;;
21741;SDS011;11033;47.490;11.116;2022-10-16T04:20:36;6.85;;;5.28;;
21741;SDS011;11033;47.490;11.116;2022-10-16T04:23:01;5.85;;;4.43;;
21741;SDS011;11033;47.490;11.116;2022-10-16T04:25:26;8.20;;;5.03;;
21741;SDS011;11033;47.490;11.116;2022-10-16T04:27:52;4.75;;;4.28;;
21741;SDS011;11033;47.490;11.116;2022-10-16T04:30:18;8.88;;;5.28;;
21741;SDS011;11033;47.490;11.116;2022-10-16T04:32:47;6.75;;;4.72;;
21741;SDS011;11033;47.490;11.116;2022-10-16T04:35:13;6.55;;;4.95;;
21741;SDS011;11033;47.490;11.116;2022-10-16T04:37:39;6.45;;;5.30;;
21741;SDS011;11033;47.490;11.116;2022-10-16T04:40:04;9.03;;;4.60;;
21741;SDS011;11033;47.490;11.116;2022-10-16T04:42:30;5.63;;;5.13;;
21741;SDS011;11033;47.490;11.116;2022-10-16T04:44:55;9.30;;;5.78;;
21741;SDS011;11033;47.490;11.116;2022-10-16T04:47:21;8.38;;;5.22;;
21741;SDS011;11033;47.490;11.116;2022-10-16T04:49:46;8.32;;;5.05;;
21741;SDS011;11033;47.490;11.116;2022-10-16T04:52:11;6.33;;;5.13;;
21741;SDS011;11033;47.490;11.116;2022-10-16T04:54:37;6.32;;;4.95;;
21741;SDS011;11033;47.490;11.116;2022-10-16T04:57:02;5.50;;;4.70;;
21741;SDS011;11033;47.490;11.116;2022-10-16T04:59:27;7.60;;;5.05;;
21741;SDS011;11033;47.490;11.116;2022-10-16T05:01:53;8.43;;;5.35;;
21741;SDS011;11033;47.490;11.116;2022-10-16T05:04:18;6.13;;;4.57;;
21741;SDS011;11033;47.490;11.116;2022-10-16T05:06:43;6.10;;;4.97;;
21741;SDS011;11033;47.490;11.116;2022-10-16T05:09:09;6.47;;;4.90;;
21741;SDS011;11033;47.490;11.116;2022-10-16T05:11:35;7.13;;;5.35;;
21741;SDS011;11033;47.490;11.116;2022-10-16T05:14:00;9.30;;;4.65;;
21741;SDS011;11033;47.490;11.116;2022-10-16T05:16:26;8.07;;;4.82;;
21741;SDS011;11033;47.490;11.116;2022-10-16T05:18:51;7.07;;;5.05;;
21741;SDS011;11033;47.490;11.116;2022-10-16T05:21:17;10.20;;;4.95;;
21741;SDS011;11033;47.490;11.116;2022-10-16T05:23:43;5.93;;;4.80;;
21741;SDS011;11033;47.490;11.116;2022-10-16T05:26:08;8.98;;;5.20;;
21741;SDS011;11033;47.490;11.116;2022-10-16T05:28:33;10.68;;;4.65;;
21741;SDS011;11033;47.490;11.116;2022-10-16T05:30:59;4.50;;;4.10;;
21741;SDS011;11033;47.490;11.116;2022-10-16T05:33:25;9.40;;;4.78;;
21741;SDS011;11033;47.490;11.116;2022-10-16T05:35:51;7.25;;;5.03;;
21741;SDS011;11033;47.490;11.116;2022-10-16T05:38:17;6.50;;;5.38;;
21741;SDS011;11033;47.490;11.116;2022-10-16T05:40:43;7.28;;;5.10;;
21741;SDS011;11033;47.490;11.116;2022-10-16T05:43:08;5.75;;;5.03;;
21741;SDS011;11033;47.490;11.116;2022-10-16T05:45:34;15.02;;;5.07;;
21741;SDS011;11033;47.490;11.116;2022-10-16T05:47:59;6.50;;;4.95;;
21741;SDS011;11033;47.490;11.116;2022-10-16T05:50:25;6.55;;;5.68;;
21741;SDS011;11033;47.490;11.116;2022-10-16T05:52:51;7.00;;;5.10;;
21741;SDS011;11033;47.490;11.116;2022-10-16T05:55:16;8.70;;;6.18;;
21741;SDS011;11033;47.490;11.116;2022-10-16T05:57:42;9.73;;;5.35;;
21741;SDS011;11033;47.490;11.116;2022-10-16T06:00:07;7.28;;;5.35;;
21741;SDS011;11033;47.490;11.116;2022-10-16T06:02:33;6.72;;;5.50;;
21741;SDS011;11033;47.490;11.116;2022-10-16T06:04:58;9.73;;;5.80;;
21741;SDS011;11033;47.490;11.116;2022-10-16T06:07:24;6.00;;;5.23;;
21741;SDS011;11033;47.490;11.116;2022-10-16T06:09:49;9.65;;;6.15;;
21741;SDS011;11033;47.490;11.116;2022-10-16T06:12:16;7.35;;;5.50;;
21741;SDS011;11033;47.490;11.116;2022-10-16T06:14:42;8.25;;;5.45;;
21741;SDS011;11033;47.490;11.116;2022-10-16T06:17:07;8.20;;;5.47;;
21741;SDS011;11033;47.490;11.116;2022-10-16T06:19:32;6.68;;;5.70;;
21741;SDS011;11033;47.490;11.116;2022-10-16T06:21:58;7.43;;;5.28;;
21741;SDS011;11033;47.490;11.116;2022-10-16T06:24:23;10.35;;;5.47;;
21741;SDS011;11033;47.490;11.116;2022-10-16T06:26:49;7.03;;;5.85;;
21741;SDS011;11033;47.490;11.116;2022-10-16T06:29:14;10.32;;;5.65;;
21741;SDS011;11033;47.490;11.116;2022-10-16T06:31:40;22.05;;;6.43;;
21741;SDS011;11033;47.490;11.116;2022-10-16T06:34:05;10.77;;;4.97;;
21741;SDS011;11033;47.490;11.116;2022-10-16T06:36:34;6.80;;;5.32;;
21741;SDS011;11033;47.490;11.116;2022-10-16T06:38:59;6.00;;;5.38;;
21741;SDS011;11033;47.490;11.116;2022-10-16T06:41:25;5.93;;;4.75;;
21741;SDS011;11033;47.490;11.116;2022-10-16T06:43:50;5.93;;;5.05;;
21741;SDS011;11033;47.490;11.116;2022-10-16T06:46:18;7.47;;;5.18;;
21741;SDS011;11033;47.490;11.116;2022-10-16T06:48:45;7.65;;;5.28;;
21741;SDS011;11033;47.490;11.116;2022-10-16T06:51:15;6.90;;;5.60;;
21741;SDS011;11033;47.490;11.116;2022-10-16T06:53:43;5.40;;;4.75;;
21741;SDS011;11033;47.490;11.116;2022-10-16T06:56:19;7.20;;;5.10;;
21741;SDS011;11033;47.490;11.116;2022-10-16T06:58:49;8.10;;;5.78;;
21741;SDS011;11033;47.490;11.116;2022-10-16T07:01:16;6.03;;;5.47;;
21741;SDS011;11033;47.490;11.116;2022-10-16T07:03:43;6.57;;;5.65;;
21741;SDS011;11033;47.490;11.116;2022-10-16T07:06:10;7.75;;;5.63;;
21741;SDS011;11033;47.490;11.116;2022-10-16T07:08:38;5.28;;;4.78;;
21741;SDS011;11033;47.490;11.116;2022-10-16T07:11:05;7.47;;;5.63;;
21741;SDS011;11033;47.490;11.116;2022-10-16T07:13:33;8.40;;;5.30;;
21741;SDS011;11033;47.490;11.116;2022-10-16T07:16:06;6.97;;;4.90;;
21741;SDS011;11033;47.490;11.116;2022-10-16T07:18:38;7.18;;;5.13;;
21741;SDS011;11033;47.490;11.116;2022-10-16T07:21:06;5.45;;;4.88;;
21741;SDS011;11033;47.490;11.116;2022-10-16T07:23:31;6.68;;;4.65;;
21741;SDS011;11033;47.490;11.116;2022-10-16T07:25:57;12.15;;;5.50;;
21741;SDS011;11033;47.490;11.116;2022-10-16T07:28:22;5.75;;;5.13;;
21741;SDS011;11033;47.490;11.116;2022-10-16T07:30:48;8.50;;;5.43;;
21741;SDS011;11033;47.490;11.116;2022-10-16T07:33:13;15.38;;;5.70;;
21741;SDS011;11033;47.490;11.116;2022-10-16T07:35:46;6.70;;;4.95;;
21741;SDS011;11033;47.490;11.116;2022-10-16T07:38:19;6.07;;;4.80;;
21741;SDS011;11033;47.490;11.116;2022-10-16T07:40:45;7.88;;;6.07;;
21741;SDS011;11033;47.490;11.116;2022-10-16T07:43:10;6.32;;;5.68;;
21741;SDS011;11033;47.490;11.116;2022-10-16T07:45:36;6.65;;;4.65;;
21741;SDS011;11033;47.490;11.116;2022-10-16T07:48:02;6.28;;;5.65;;
21741;SDS011;11033;47.490;11.116;2022-10-16T07:50:27;5.57;;;4.97;;
21741;SDS011;11033;47.490;11.116;2022-10-16T07:52:52;5.63;;;5.05;;
21741;SDS011;11033;47.490;11.116;2022-10-16T07:55:18;6.90;;;5.20;;
21741;SDS011;11033;47.490;11.116;2022-10-16T07:57:43;7.43;;;5.97;;
21741;SDS011;11033;47.490;11.116;2022-10-16T08:00:08;6.30;;;4.70;;
21741;SDS011;11033;47.490;11.116;2022-10-16T08:02:38;14.20;;;6.40;;
21741;SDS011;11033;47.490;11.116;2022-10-16T08:05:07;12.50;;;5.30;;
21741;SDS011;11033;47.490;11.116;2022-10-16T08:07:33;5.85;;;4.90;;
21741;SDS011;11033;47.490;11.116;2022-10-16T08:09:58;8.80;;;5.30;;
21741;SDS011;11033;47.490;11.116;2022-10-16T08:12:24;6.45;;;4.88;;
21741;SDS011;11033;47.490;11.116;2022-10-16T08:14:50;4.07;;;3.67;;
21741;SDS011;11033;47.490;11.116;2022-10-16T08:17:15;5.97;;;5.35;;
21741;SDS011;11033;47.490;11.116;2022-10-16T08:19:43;7.68;;;4.07;;
21741;SDS011;11033;47.490;11.116;2022-10-16T08:22:09;5.25;;;3.95;;
21741;SDS011;11033;47.490;11.116;2022-10-16T08:24:35;4.60;;;3.42;;
21741;SDS011;11033;47.490;11.116;2022-10-16T08:27:01;5.40;;;4.18;;
21741;SDS011;11033;47.490;11.116;2022-10-16T08:29:27;4.45;;;3.60;;
21741;SDS011;11033;47.490;11.116;2022-10-16T08:31:52;7.32;;;3.60;;
21741;SDS011;11033;47.490;11.116;2022-10-16T08:34:18;3.85;;;3.45;;
21741;SDS011;11033;47.490;11.116;2022-10-16T08:36:43;3.47;;;3.10;;
21741;SDS011;11033;47.490;11.116;2022-10-16T08:39:08;4.40;;;3.55;;
21741;SDS011;11033;47.490;11.116;2022-10-16T08:47:21;5.80;;;4.25;;
21741;SDS011;11033;47.490;11.116;2022-10-16T08:49:57;4.47;;;4.03;;
21741;SDS011;11033;47.490;11.116;2022-10-16T08:52:29;6.63;;;4.65;;
21741;SDS011;11033;47.490;11.116;2022-10-16T08:54:57;4.75;;;4.35;;
21741;SDS011;11033;47.490;11.116;2022-10-16T08:57:24;6.30;;;3.97;;
21741;SDS011;11033;47.490;11.116;2022-10-16T08:59:52;4.57;;;4.00;;
21741;SDS011;11033;47.490;11.116;2022-10-16T09:04:53;5.45;;;4.70;;
21741;SDS011;11033;47.490;11.116;2022-10-16T09:07:45;7.05;;;5.13;;
21741;SDS011;11033;47.490;11.116;2022-10-16T09:10:55;5.65;;;4.60;;
21741;SDS011;11033;47.490;11.116;2022-10-16T09:14:03;4.63;;;4.10;;
21741;SDS011;11033;47.490;11.116;2022-10-16T09:19:23;4.72;;;4.13;;
21741;SDS011;11033;47.490;11.116;2022-10-16T09:21:56;4.63;;;4.07;;
21741;SDS011;11033;47.490;11.116;2022-10-16T09:24:25;4.47;;;4.07;;
21741;SDS011;11033;47.490;11.116;2022-10-16T09:26:51;6.05;;;4.45;;
21741;SDS011;11033;47.490;11.116;2022-10-16T09:29:17;4.65;;;3.92;;
21741;SDS011;11033;47.490;11.116;2022-10-16T09:31:50;4.80;;;4.40;;
21741;SDS011;11033;47.490;11.116;2022-10-16T09:34:30;4.13;;;3.70;;
21741;SDS011;11033;47.490;11.116;2022-10-16T09:36:59;4.00;;;3.70;;
21741;SDS011;11033;47.490;11.116;2022-10-16T09:39:28;4.75;;;3.75;;
21741;SDS011;11033;47.490;11.116;2022-10-16T09:41:53;5.38;;;4.10;;
21741;SDS011;11033;47.490;11.116;2022-10-16T09:44:23;4.18;;;3.60;;
21741;SDS011;11033;47.490;11.116;2022-10-16T09:49:27;5.38;;;3.72;;
21741;SDS011;11033;47.490;11.116;2022-10-16T09:52:03;4.43;;;4.03;;
21741;SDS011;11033;47.490;11.116;2022-10-16T09:54:30;3.55;;;3.25;;
21741;SDS011;11033;47.490;11.116;2022-10-16T09:57:03;3.67;;;3.38;;
21741;SDS011;11033;47.490;11.116;2022-10-16T09:59:31;5.55;;;3.42;;
21741;SDS011;11033;47.490;11.116;2022-10-16T10:01:56;4.15;;;3.67;;
21741;SDS011;11033;47.490;11.116;2022-10-16T10:04:36;4.10;;;3.70;;
21741;SDS011;11033;47.490;11.116;2022-10-16T10:07:04;3.67;;;3.28;;
21741;SDS011;11033;47.490;11.116;2022-10-16T10:09:38;3.40;;;3.10;;
21741;SDS011;11033;47.490;11.116;2022-10-16T10:12:05;3.13;;;2.88;;
21741;SDS011;11033;47.490;11.116;2022-10-16T10:14:43;3.00;;;2.53;;
21741;SDS011;11033;47.490;11.116;2022-10-16T10:24:57;3.83;;;2.77;;
21741;SDS011;11033;47.490;11.116;2022-10-16T10:27:28;3.83;;;2.97;;
21741;SDS011;11033;47.490;11.116;2022-10-16T10:30:03;3.28;;;3.00;;
21741;SDS011;11033;47.490;11.116;2022-10-16T10:32:43;3.70;;;3.38;;
21741;SDS011;11033;47.490;11.116;2022-10-16T10:35:54;5.32;;;3.15;;
21741;SDS011;11033;47.490;11.116;2022-10-16T10:41:38;7.38;;;2.90;;
21741;SDS011;11033;47.490;11.116;2022-10-16T10:55:47;6.15;;;2.90;;
21741;SDS011;11033;47.490;11.116;2022-10-16T11:09:09;2.65;;;2.45;;
21741;SDS011;11033;47.490;11.116;2022-10-16T11:17:16;1.95;;;1.73;;
21741;SDS011;11033;47.490;11.116;2022-10-16T11:19:51;3.75;;;1.77;;
21741;SDS011;11033;47.490;11.116;2022-10-16T11:22:19;1.80;;;1.70;;
21741;SDS011;11033;47.490;11.116;2022-10-16T11:25:46;4.35;;;1.52;;
21741;SDS011;11033;47.490;11.116;2022-10-16T11:30:44;1.55;;;1.45;;
21741;SDS011;11033;47.490;11.116;2022-10-16T11:33:20;1.42;;;1.33;;
21741;SDS011;11033;47.490;11.116;2022-10-16T11:36:12;1.80;;;1.70;;
21741;SDS011;11033;47.490;11.116;2022-10-16T11:38:58;4.05;;;1.70;;
21741;SDS011;11033;47.490;11.116;2022-10-16T11:49:28;2.60;;;1.95;;
21741;SDS011;11033;47.490;11.116;2022-10-16T11:52:05;2.38;;;2.17;;
21741;SDS011;11033;47.490;11.116;2022-10-16T11:54:45;1.60;;;1.50;;
21741;SDS011;11033;47.490;11.116;2022-10-16T11:57:21;3.63;;;1.80;;
21741;SDS011;11033;47.490;11.116;2022-10-16T12:02:33;2.95;;;1.85;;
21741;SDS011;11033;47.490;11.116;2022-10-16T12:08:13;1.55;;;1.40;;
21741;SDS011;11033;47.490;11.116;2022-10-16T12:10:41;1.52;;;1.42;;
21741;SDS011;11033;47.490;11.116;2022-10-16T12:16:03;4.13;;;1.88;;
21741;SDS011;11033;47.490;11.116;2022-10-16T12:18:41;1.38;;;1.33;;
21741;SDS011;11033;47.490;11.116;2022-10-16T12:21:09;1.90;;;1.80;;
21741;SDS011;11033;47.490;11.116;2022-10-16T12:23:48;1.85;;;1.65;;
21741;SDS011;11033;47.490;11.116;2022-10-16T12:26:23;1.80;;;1.70;;
21741;SDS011;11033;47.490;11.116;2022-10-16T12:28:52;2.13;;;2.00;;
21741;SDS011;11033;47.490;11.116;2022-10-16T12:31:18;2.03;;;1.90;;
21741;SDS011;11033;47.490;11.116;2022-10-16T12:33:57;3.38;;;2.08;;
21741;SDS011;11033;47.490;11.116;2022-10-16T12:36:29;2.10;;;2.00;;
21741;SDS011;11033;47.490;11.116;2022-10-16T12:38:57;2.70;;;2.50;;
21741;SDS011;11033;47.490;11.116;2022-10-16T12:41:30;4.22;;;3.33;;
21741;SDS011;11033;47.490;11.116;2022-10-16T12:43:58;3.60;;;3.30;;
21741;SDS011;11033;47.490;11.116;2022-10-16T12:49:04;20.02;;;19.23;;
21741;SDS011;11033;47.490;11.116;2022-10-16T12:53:58;28.17;;;26.97;;
21741;SDS011;11033;47.490;11.116;2022-10-16T12:56:24;31.88;;;30.63;;
21741;SDS011;11033;47.490;11.116;2022-10-16T13:21:00;25.65;;;24.58;;
21741;SDS011;11033;47.490;11.116;2022-10-16T13:29:06;9.60;;;9.18;;
21741;SDS011;11033;47.490;11.116;2022-10-16T13:31:31;7.32;;;7.03;;
21741;SDS011;11033;47.490;11.116;2022-10-16T13:33:58;7.03;;;6.63;;
21741;SDS011;11033;47.490;11.116;2022-10-16T13:36:26;6.10;;;5.85;;
21741;SDS011;11033;47.490;11.116;2022-10-16T13:39:00;6.03;;;5.53;;
21741;SDS011;11033;47.490;11.116;2022-10-16T13:41:36;5.70;;;5.40;;
21741;SDS011;11033;47.490;11.116;2022-10-16T13:44:02;8.40;;;7.65;;
21741;SDS011;11033;47.490;11.116;2022-10-16T13:46:27;6.10;;;5.80;;
21741;SDS011;11033;47.490;11.116;2022-10-16T13:48:58;6.50;;;5.95;;
21741;SDS011;11033;47.490;11.116;2022-10-16T13:51:27;5.05;;;4.75;;
21741;SDS011;11033;47.490;11.116;2022-10-16T13:53:54;5.60;;;5.30;;
21741;SDS011;11033;47.490;11.116;2022-10-16T13:56:21;4.95;;;4.70;;
21741;SDS011;11033;47.490;11.116;2022-10-16T13:58:58;5.00;;;4.80;;
21741;SDS011;11033;47.490;11.116;2022-10-16T14:01:28;4.43;;;4.22;;
21741;SDS011;11033;47.490;11.116;2022-10-16T14:04:00;4.72;;;4.47;;
21741;SDS011;11033;47.490;11.116;2022-10-16T14:06:32;5.32;;;5.00;;
21741;SDS011;11033;47.490;11.116;2022-10-16T14:08:59;5.40;;;5.18;;
21741;SDS011;11033;47.490;11.116;2022-10-16T14:11:29;5.40;;;5.10;;
21741;SDS011;11033;47.490;11.116;2022-10-16T14:13:55;4.85;;;4.65;;
21741;SDS011;11033;47.490;11.116;2022-10-16T14:16:21;4.97;;;4.68;;
21741;SDS011;11033;47.490;11.116;2022-10-16T14:18:57;6.63;;;4.85;;
21741;SDS011;11033;47.490;11.116;2022-10-16T14:21:25;5.15;;;4.75;;
21741;SDS011;11033;47.490;11.116;2022-10-16T14:23:51;5.03;;;4.40;;
21741;SDS011;11033;47.490;11.116;2022-10-16T14:26:19;4.15;;;3.88;;
21741;SDS011;11033;47.490;11.116;2022-10-16T14:28:46;3.80;;;3.60;;
21741;SDS011;11033;47.490;11.116;2022-10-16T14:33:44;3.60;;;3.50;;
21741;SDS011;11033;47.490;11.116;2022-10-16T14:38:34;3.47;;;3.17;;
21741;SDS011;11033;47.490;11.116;2022-10-16T14:41:00;3.38;;;3.17;;
21741;SDS011;11033;47.490;11.116;2022-10-16T14:43:36;3.35;;;3.10;;
21741;SDS011;11033;47.490;11.116;2022-10-16T14:46:06;3.30;;;3.03;;
21741;SDS011;11033;47.490;11.116;2022-10-16T14:48:45;4.35;;;3.25;;
21741;SDS011;11033;47.490;11.116;2022-10-16T14:51:14;3.10;;;2.90;;
21741;SDS011;11033;47.490;11.116;2022-10-16T14:53:40;3.35;;;3.15;;
21741;SDS011;11033;47.490;11.116;2022-10-16T14:56:07;3.63;;;3.33;;
21741;SDS011;11033;47.490;11.116;2022-10-16T14:58:33;4.03;;;3.00;;
21741;SDS011;11033;47.490;11.116;2022-10-16T15:01:00;2.80;;;2.60;;
21741;SDS011;11033;47.490;11.116;2022-10-16T15:03:25;3.80;;;2.50;;
21741;SDS011;11033;47.490;11.116;2022-10-16T15:05:50;2.47;;;2.37;;
21741;SDS011;11033;47.490;11.116;2022-10-16T15:08:15;2.67;;;2.47;;
21741;SDS011;11033;47.490;11.116;2022-10-16T15:10:42;4.20;;;3.78;;
21741;SDS011;11033;47.490;11.116;2022-10-16T15:13:12;3.20;;;2.90;;
21741;SDS011;11033;47.490;11.116;2022-10-16T15:18:08;4.20;;;4.00;;
21741;SDS011;11033;47.490;11.116;2022-10-16T15:20:34;2.70;;;2.53;;
21741;SDS011;11033;47.490;11.116;2022-10-16T15:23:01;4.95;;;4.75;;
21741;SDS011;11033;47.490;11.116;2022-10-16T15:25:38;3.08;;;2.78;;
21741;SDS011;11033;47.490;11.116;2022-10-16T15:28:07;3.55;;;2.20;;
21741;SDS011;11033;47.490;11.116;2022-10-16T15:30:33;1.92;;;1.40;;
21741;SDS011;11033;47.490;11.116;2022-10-16T15:32:59;7.30;;;6.90;;
21741;SDS011;11033;47.490;11.116;2022-10-16T15:35:24;3.72;;;3.42;;
21741;SDS011;11033;47.490;11.116;2022-10-16T15:37:50;4.32;;;4.05;;
21741;SDS011;11033;47.490;11.116;2022-10-16T15:40:16;3.72;;;3.53;;
21741;SDS011;11033;47.490;11.116;2022-10-16T15:42:43;1.52;;;1.42;;
21741;SDS011;11033;47.490;11.116;2022-10-16T15:45:09;1.63;;;1.52;;
21741;SDS011;11033;47.490;11.116;2022-10-16T15:47:35;2.05;;;1.60;;
21741;SDS011;11033;47.490;11.116;2022-10-16T15:50:00;1.40;;;1.30;;
21741;SDS011;11033;47.490;11.116;2022-10-16T15:52:26;4.18;;;1.52;;
21741;SDS011;11033;47.490;11.116;2022-10-16T15:54:51;1.38;;;1.23;;
21741;SDS011;11033;47.490;11.116;2022-10-16T15:57:17;1.67;;;1.57;;
21741;SDS011;11033;47.490;11.116;2022-10-16T15:59:42;2.60;;;1.73;;
21741;SDS011;11033;47.490;11.116;2022-10-16T16:02:08;3.20;;;1.80;;
21741;SDS011;11033;47.490;11.116;2022-10-16T16:04:34;4.60;;;1.60;;
21741;SDS011;11033;47.490;11.116;2022-10-16T16:06:59;8.95;;;1.65;;
21741;SDS011;11033;47.490;11.116;2022-10-16T16:09:26;6.18;;;1.65;;
21741;SDS011;11033;47.490;11.116;2022-10-16T16:11:51;6.22;;;1.70;;
21741;SDS011;11033;47.490;11.116;2022-10-16T16:14:17;6.55;;;1.85;;
21741;SDS011;11033;47.490;11.116;2022-10-16T16:16:42;6.88;;;2.22;;
21741;SDS011;11033;47.490;11.116;2022-10-16T16:19:08;7.63;;;2.13;;
21741;SDS011;11033;47.490;11.116;2022-10-16T16:21:34;2.78;;;1.50;;
21741;SDS011;11033;47.490;11.116;2022-10-16T16:24:00;6.85;;;1.92;;
21741;SDS011;11033;47.490;11.116;2022-10-16T16:26:29;6.57;;;2.15;;
21741;SDS011;11033;47.490;11.116;2022-10-16T16:29:01;9.13;;;2.33;;
21741;SDS011;11033;47.490;11.116;2022-10-16T16:31:28;8.25;;;1.85;;
21741;SDS011;11033;47.490;11.116;2022-10-16T16:33:55;5.60;;;1.75;;
21741;SDS011;11033;47.490;11.116;2022-10-16T16:36:22;5.63;;;1.73;;
21741;SDS011;11033;47.490;11.116;2022-10-16T16:38:48;9.60;;;2.38;;